ANA109 KJFK-RJTT
Flight info
| Callsign | ANA109 |
|---|---|
| Flight time | N/A |
| Altitude | 31000 |
| Route | GREKI DCT JUDDS DCT CAM/N0486F300 DCT BUGSY DCT PELEE DCT 61N090W/N0488F320 66N100W 69N110W 71N120W 71N130W/N0490F340 DCT VOLOB DCT SCC Q12 OTZ DCT JUJXI DCT MARCC R338 NATES/N0483F350 R220 NIKLL/N0487F360 R220 NOGAL/N0474F370 R220 NODAN/N0473F380 R220 NANAC Y810 AKRIT Y807 POLIX |
| Aircraft | B77W/H-SDE1E2E3FGHIJ2J3J4J5M1RWXY/LB1D1 |
Departure
| Time | 2026-05-06 19:53 |
|---|---|
| Airport | John F. Kennedy International Airport (KJFK) |
Arrival
| Time | N/A |
|---|---|
| Airport | Tokyo Haneda International Airport (RJTT) |
| Time | Latitude | Longitude | Altitude | Speed | Heading |
|---|---|---|---|---|---|
| 2026-05-06 19:07 | 40.65114 | -73.78358 | 25 ft | 0 kts | 156° |
| 2026-05-06 19:36 | 40.65125 | -73.78365 | 31 ft | 2 kts | 155° |
| 2026-05-06 19:37 | 40.65140 | -73.78374 | 30 ft | 2 kts | 155° |
| 2026-05-06 19:37 | 40.65155 | -73.78383 | 31 ft | 2 kts | 140° |
| 2026-05-06 19:37 | 40.65163 | -73.78401 | 25 ft | 2 kts | 96° |
| 2026-05-06 19:37 | 40.65163 | -73.78423 | 27 ft | 2 kts | 72° |
| 2026-05-06 19:38 | 40.65155 | -73.78442 | 31 ft | 2 kts | 27° |
| 2026-05-06 19:38 | 40.65140 | -73.78450 | 31 ft | 2 kts | 21° |
| 2026-05-06 19:38 | 40.65129 | -73.78456 | 31 ft | 1 kts | 22° |
| 2026-05-06 19:41 | 40.65148 | -73.78445 | 31 ft | 3 kts | 23° |
| 2026-05-06 19:41 | 40.65169 | -73.78433 | 31 ft | 3 kts | 23° |
| 2026-05-06 19:42 | 40.65173 | -73.78431 | 31 ft | 0 kts | 22° |
| 2026-05-06 19:44 | 40.65196 | -73.78418 | 30 ft | 5 kts | 22° |
| 2026-05-06 19:44 | 40.65235 | -73.78386 | 29 ft | 11 kts | 50° |
| 2026-05-06 19:45 | 40.65222 | -73.78282 | 30 ft | 12 kts | 120° |
| 2026-05-06 19:45 | 40.65178 | -73.78186 | 27 ft | 12 kts | 121° |
| 2026-05-06 19:45 | 40.65136 | -73.78091 | 29 ft | 12 kts | 120° |
| 2026-05-06 19:45 | 40.65093 | -73.77994 | 27 ft | 12 kts | 120° |
| 2026-05-06 19:46 | 40.65048 | -73.77899 | 30 ft | 12 kts | 121° |
| 2026-05-06 19:46 | 40.65012 | -73.77818 | 30 ft | 10 kts | 121° |
| 2026-05-06 19:46 | 40.64974 | -73.77734 | 29 ft | 12 kts | 121° |
| 2026-05-06 19:46 | 40.64932 | -73.77642 | 29 ft | 11 kts | 121° |
| 2026-05-06 19:47 | 40.64911 | -73.77546 | 26 ft | 11 kts | 69° |
| 2026-05-06 19:47 | 40.64964 | -73.77480 | 30 ft | 9 kts | 39° |
| 2026-05-06 19:47 | 40.65020 | -73.77440 | 28 ft | 9 kts | 20° |
| 2026-05-06 19:47 | 40.65084 | -73.77404 | 30 ft | 11 kts | 28° |
| 2026-05-06 19:48 | 40.65125 | -73.77314 | 26 ft | 13 kts | 103° |
| 2026-05-06 19:48 | 40.65089 | -73.77224 | 31 ft | 10 kts | 120° |
| 2026-05-06 19:48 | 40.65054 | -73.77146 | 31 ft | 10 kts | 121° |
| 2026-05-06 19:48 | 40.65006 | -73.77042 | 29 ft | 20 kts | 121° |
| 2026-05-06 19:49 | 40.64936 | -73.76884 | 31 ft | 17 kts | 121° |
| 2026-05-06 19:49 | 40.64882 | -73.76762 | 31 ft | 14 kts | 112° |
| 2026-05-06 19:49 | 40.64920 | -73.76663 | 32 ft | 14 kts | 25° |
| 2026-05-06 19:49 | 40.65000 | -73.76603 | 29 ft | 13 kts | 30° |
| 2026-05-06 19:50 | 40.65076 | -73.76545 | 31 ft | 12 kts | 33° |
| 2026-05-06 19:50 | 40.65096 | -73.76486 | 26 ft | 7 kts | 95° |
| 2026-05-06 19:50 | 40.65092 | -73.76467 | 26 ft | 0 kts | 114° |
| 2026-05-06 19:51 | 40.65088 | -73.76454 | 27 ft | 3 kts | 114° |
| 2026-05-06 19:51 | 40.65070 | -73.76411 | 27 ft | 9 kts | 120° |
| 2026-05-06 19:51 | 40.65004 | -73.76377 | 27 ft | 13 kts | 195° |
| 2026-05-06 19:52 | 40.64931 | -73.76427 | 26 ft | 0 kts | 210° |
| 2026-05-06 19:52 | 40.64928 | -73.76428 | 26 ft | 8 kts | 210° |
| 2026-05-06 19:52 | 40.64627 | -73.76664 | 26 ft | 92 kts | 210° |
| 2026-05-06 19:52 | 40.63854 | -73.77270 | 27 ft | 169 kts | 211° |
| 2026-05-06 19:53 | 40.62675 | -73.78202 | 472 ft | 201 kts | 212° |
| 2026-05-06 19:53 | 40.61538 | -73.79115 | 1961 ft | 183 kts | 213° |
| 2026-05-06 19:53 | 40.60373 | -73.79976 | 2444 ft | 206 kts | 212° |
| 2026-05-06 19:53 | 40.59042 | -73.80927 | 2644 ft | 229 kts | 212° |
| 2026-05-06 19:54 | 40.57608 | -73.81942 | 3178 ft | 238 kts | 211° |
| 2026-05-06 19:54 | 40.56063 | -73.82803 | 3705 ft | 249 kts | 194° |
| 2026-05-06 19:54 | 40.54288 | -73.82642 | 4286 ft | 267 kts | 166° |
| 2026-05-06 19:54 | 40.52668 | -73.81328 | 4897 ft | 286 kts | 140° |
| 2026-05-06 19:55 | 40.51556 | -73.79074 | 5420 ft | 305 kts | 114° |
| 2026-05-06 19:55 | 40.51230 | -73.76278 | 6006 ft | 317 kts | 88° |
| 2026-05-06 19:55 | 40.51555 | -73.73384 | 6614 ft | 324 kts | 79° |
| 2026-05-06 19:55 | 40.52053 | -73.70474 | 7224 ft | 328 kts | 78° |
| 2026-05-06 19:56 | 40.52595 | -73.67551 | 7826 ft | 331 kts | 78° |
| 2026-05-06 19:56 | 40.53152 | -73.64599 | 8392 ft | 335 kts | 77° |
| 2026-05-06 19:56 | 40.53726 | -73.61597 | 8966 ft | 340 kts | 77° |
| 2026-05-06 19:56 | 40.54310 | -73.58574 | 9570 ft | 342 kts | 77° |
| 2026-05-06 19:57 | 40.54904 | -73.55528 | 10122 ft | 346 kts | 77° |
| 2026-05-06 19:57 | 40.55516 | -73.52417 | 10434 ft | 360 kts | 77° |
| 2026-05-06 19:57 | 40.56164 | -73.49146 | 10565 ft | 377 kts | 75° |
| 2026-05-06 19:57 | 40.57313 | -73.46017 | 10659 ft | 394 kts | 49° |
| 2026-05-06 19:58 | 40.59409 | -73.43668 | 10812 ft | 403 kts | 23° |
| 2026-05-06 19:58 | 40.62067 | -73.42633 | 11150 ft | 399 kts | 357° |
| 2026-05-06 19:58 | 40.64821 | -73.42692 | 11510 ft | 399 kts | 353° |
| 2026-05-06 19:58 | 40.67638 | -73.42612 | 12006 ft | 410 kts | 357° |
| 2026-05-06 19:59 | 40.70506 | -73.42338 | 12715 ft | 413 kts | 359° |
| 2026-05-06 19:59 | 40.73358 | -73.41972 | 13465 ft | 415 kts | 0° |
| 2026-05-06 19:59 | 40.76268 | -73.41563 | 14041 ft | 420 kts | 0° |
| 2026-05-06 19:59 | 40.79191 | -73.41141 | 14606 ft | 425 kts | 0° |
| 2026-05-06 20:00 | 40.82147 | -73.40714 | 15216 ft | 428 kts | 0° |
| 2026-05-06 20:00 | 40.85085 | -73.40292 | 15810 ft | 431 kts | 360° |
| 2026-05-06 20:00 | 40.88079 | -73.39867 | 16395 ft | 435 kts | 360° |
| 2026-05-06 20:00 | 40.91107 | -73.39441 | 16935 ft | 439 kts | 360° |